createdAt,value
2018-09-06T00:00:37.527Z,8.43
2018-09-06T00:03:05.836Z,9.60
2018-09-06T00:05:34.185Z,8.27
2018-09-06T00:08:02.509Z,9.20
2018-09-06T00:10:30.837Z,8.30
2018-09-06T00:12:59.169Z,8.50
2018-09-06T00:15:27.493Z,9.10
2018-09-06T00:17:55.957Z,9.07
2018-09-06T00:20:24.285Z,8.80
2018-09-06T00:22:52.609Z,8.23
2018-09-06T00:25:20.945Z,8.93
2018-09-06T00:27:49.253Z,8.97
2018-09-06T00:30:17.577Z,8.90
2018-09-06T00:32:45.885Z,7.93
2018-09-06T00:35:14.241Z,9.07
2018-09-06T00:37:42.553Z,7.70
2018-09-06T00:40:11.206Z,7.80
2018-09-06T00:42:39.983Z,8.80
2018-09-06T00:45:08.321Z,8.87
2018-09-06T00:47:36.630Z,8.27
2018-09-06T00:50:09.190Z,8.90
2018-09-06T00:52:37.608Z,8.80
2018-09-06T00:55:06.168Z,9.00
2018-09-06T00:57:34.597Z,8.30
2018-09-06T01:00:02.892Z,8.23
2018-09-06T01:02:31.220Z,8.87
2018-09-06T01:04:59.541Z,9.37
2018-09-06T01:07:27.889Z,9.20
2018-09-06T01:09:56.180Z,9.87
2018-09-06T01:13:48.964Z,9.90
2018-09-06T01:16:17.376Z,9.10
2018-09-06T01:18:45.683Z,9.30
2018-09-06T01:21:14.001Z,8.67
2018-09-06T01:23:42.318Z,9.87
2018-09-06T01:26:10.639Z,8.67
2018-09-06T01:28:38.935Z,8.80
2018-09-06T01:31:07.258Z,8.97
2018-09-06T01:33:35.589Z,8.23
2018-09-06T01:36:09.367Z,8.90
2018-09-06T01:38:37.695Z,10.30
2018-09-06T01:41:06.032Z,8.30
2018-09-06T01:43:34.345Z,9.03
2018-09-06T01:46:02.676Z,8.10
2018-09-06T01:48:30.980Z,9.07
2018-09-06T01:50:59.300Z,9.30
2018-09-06T01:53:28.141Z,8.90
2018-09-06T01:55:56.489Z,8.87
2018-09-06T01:58:24.846Z,8.27
2018-09-06T02:00:53.168Z,9.20
2018-09-06T02:03:21.467Z,9.20
2018-09-06T02:05:49.800Z,8.77
2018-09-06T02:08:18.155Z,8.90
2018-09-06T02:10:46.480Z,9.27
2018-09-06T02:13:14.804Z,8.57
2018-09-06T02:15:43.153Z,10.50
2018-09-06T02:18:11.472Z,9.90
2018-09-06T02:20:39.768Z,8.53
2018-09-06T02:23:08.093Z,8.87
2018-09-06T02:25:36.404Z,9.87
2018-09-06T02:28:04.724Z,9.10
2018-09-06T02:30:33.031Z,9.50
2018-09-06T02:33:01.356Z,10.80
2018-09-06T02:35:29.689Z,10.63
2018-09-06T02:37:58.000Z,9.20
2018-09-06T02:40:31.516Z,8.40
2018-09-06T02:42:59.852Z,11.67
2018-09-06T02:45:28.157Z,10.60
2018-09-06T02:47:56.967Z,10.70
2018-09-06T02:50:30.603Z,10.03
2018-09-06T02:52:58.936Z,11.53
2018-09-06T02:55:28.580Z,9.40
2018-09-06T02:57:57.400Z,11.20
2018-09-06T03:00:29.968Z,10.80
2018-09-06T03:02:58.395Z,11.20
2018-09-06T03:05:27.370Z,11.27
2018-09-06T03:07:56.917Z,10.97
2018-09-06T03:10:27.020Z,10.60
2018-09-06T03:12:55.348Z,10.07
2018-09-06T03:15:23.659Z,11.10
2018-09-06T03:17:51.975Z,9.40
2018-09-06T03:20:20.276Z,9.03
2018-09-06T03:22:48.608Z,9.27
2018-09-06T03:25:16.908Z,9.37
2018-09-06T03:27:45.233Z,9.77
2018-09-06T03:30:13.558Z,9.07
2018-09-06T03:32:41.876Z,10.70
2018-09-06T03:35:10.279Z,9.70
2018-09-06T03:37:38.612Z,9.93
2018-09-06T03:40:06.944Z,11.17
2018-09-06T03:42:35.281Z,9.73
2018-09-06T03:45:03.738Z,9.93
2018-09-06T03:47:32.194Z,9.03
2018-09-06T03:50:00.529Z,8.70
2018-09-06T03:52:28.844Z,9.30
2018-09-06T03:54:57.148Z,9.63
2018-09-06T03:57:25.467Z,9.60
2018-09-06T03:59:53.765Z,9.10
2018-09-06T04:02:22.098Z,8.57
2018-09-06T04:04:50.404Z,9.00
2018-09-06T04:07:18.741Z,10.27
2018-09-06T04:09:47.039Z,8.90
2018-09-06T04:12:15.361Z,10.37
2018-09-06T04:14:43.661Z,9.53
2018-09-06T04:17:11.989Z,10.00
2018-09-06T04:19:40.288Z,9.33
2018-09-06T04:22:08.604Z,10.27
2018-09-06T04:24:36.936Z,11.37
2018-09-06T04:27:05.260Z,12.40
2018-09-06T04:29:33.564Z,10.60
2018-09-06T04:32:01.921Z,11.50
2018-09-06T04:34:30.228Z,10.73
2018-09-06T04:36:58.544Z,11.60
2018-09-06T04:39:26.853Z,11.30
2018-09-06T04:41:55.176Z,10.43
2018-09-06T04:44:23.665Z,12.30
2018-09-06T04:46:52.480Z,10.77
2018-09-06T04:49:20.863Z,9.80
2018-09-06T04:51:49.740Z,10.47
2018-09-06T04:54:18.358Z,11.27
2018-09-06T04:56:46.658Z,11.20
2018-09-06T04:59:15.009Z,11.73
2018-09-06T05:01:43.356Z,12.70
2018-09-06T05:04:11.748Z,10.80
2018-09-06T05:06:40.025Z,11.73
2018-09-06T05:09:09.216Z,10.70
2018-09-06T05:11:38.241Z,10.63
2018-09-06T05:14:06.616Z,11.80
2018-09-06T05:16:34.920Z,11.63
2018-09-06T05:19:03.253Z,9.10
2018-09-06T05:21:31.561Z,11.10
2018-09-06T05:23:59.875Z,11.60
2018-09-06T05:26:28.180Z,12.37
2018-09-06T05:28:56.497Z,11.50
2018-09-06T05:31:24.800Z,11.83
2018-09-06T05:33:53.289Z,12.03
2018-09-06T05:36:21.611Z,11.60
2018-09-06T05:38:49.971Z,12.47
2018-09-06T05:41:18.268Z,13.33
2018-09-06T05:43:46.584Z,12.43
2018-09-06T05:46:14.885Z,10.60
2018-09-06T05:48:43.208Z,12.10
2018-09-06T05:51:11.504Z,12.10
2018-09-06T05:53:39.828Z,13.60
2018-09-06T05:56:08.128Z,10.70
2018-09-06T05:58:36.444Z,10.90
2018-09-06T06:01:04.744Z,11.10
2018-09-06T06:03:33.064Z,10.10
2018-09-06T06:06:01.369Z,11.37
2018-09-06T06:08:43.119Z,11.77
2018-09-06T06:11:11.421Z,11.07
2018-09-06T06:13:39.787Z,11.30
2018-09-06T06:16:08.415Z,13.30
2018-09-06T06:18:36.713Z,13.30
2018-09-06T06:21:05.008Z,15.73
2018-09-06T06:23:33.332Z,15.10
2018-09-06T06:26:01.716Z,11.47
2018-09-06T06:28:29.976Z,10.80
2018-09-06T06:30:58.267Z,12.30
2018-09-06T06:33:26.612Z,14.43
2018-09-06T06:35:54.912Z,12.20
2018-09-06T06:38:23.231Z,11.27
2018-09-06T06:40:51.534Z,13.10
2018-09-06T06:43:19.852Z,15.03
2018-09-06T06:45:48.143Z,15.10
2018-09-06T06:48:16.453Z,17.10
2018-09-06T06:50:44.761Z,13.60
2018-09-06T06:53:13.084Z,16.30
2018-09-06T06:55:41.612Z,13.63
2018-09-06T06:58:09.924Z,13.53
2018-09-06T07:00:42.185Z,11.80
2018-09-06T07:03:11.816Z,11.40
2018-09-06T07:05:40.711Z,13.23
2018-09-06T07:08:09.531Z,15.60
2018-09-06T07:10:37.852Z,15.30
2018-09-06T07:13:06.416Z,12.77
2018-09-06T07:15:34.715Z,16.30
2018-09-06T07:18:03.030Z,15.03
2018-09-06T07:20:31.353Z,15.77
2018-09-06T07:22:59.643Z,15.10
2018-09-06T07:25:28.277Z,12.57
2018-09-06T07:27:56.578Z,15.13
2018-09-06T07:30:24.917Z,14.27
2018-09-06T07:32:53.220Z,11.77
2018-09-06T07:35:21.561Z,11.80
2018-09-06T07:37:49.880Z,10.60
2018-09-06T07:40:18.197Z,11.67
2018-09-06T07:42:46.498Z,10.27
2018-09-06T07:45:14.812Z,10.40
2018-09-06T07:47:43.112Z,11.00
2018-09-06T07:50:11.567Z,9.20
2018-09-06T07:52:39.837Z,8.60
2018-09-06T07:55:08.149Z,9.83
2018-09-06T07:57:36.464Z,9.53
2018-09-06T08:00:05.135Z,8.10
2018-09-06T08:02:33.440Z,7.97
2018-09-06T08:05:01.757Z,10.20
2018-09-06T08:07:30.068Z,7.70
2018-09-06T08:09:58.383Z,8.63
2018-09-06T08:12:26.712Z,9.00
2018-09-06T08:14:55.120Z,9.40
2018-09-06T08:17:23.415Z,9.47
2018-09-06T08:19:51.737Z,8.37
2018-09-06T08:22:20.026Z,6.63
2018-09-06T08:24:48.336Z,7.73
2018-09-06T08:27:16.656Z,7.53
2018-09-06T08:29:45.068Z,7.70
2018-09-06T08:32:13.363Z,7.10
2018-09-06T08:34:41.680Z,8.07
2018-09-06T08:37:09.996Z,7.90
2018-09-06T08:39:38.320Z,8.33
2018-09-06T08:42:06.617Z,7.50
2018-09-06T08:44:34.935Z,7.87
2018-09-06T08:47:03.224Z,7.77
2018-09-06T08:49:31.535Z,7.47
2018-09-06T08:51:59.843Z,8.60
2018-09-06T08:54:28.160Z,7.50
2018-09-06T08:56:56.460Z,9.03
2018-09-06T08:59:24.892Z,8.63
2018-09-06T09:01:53.211Z,8.70
2018-09-06T09:04:21.676Z,8.87
2018-09-06T09:06:50.020Z,8.87
2018-09-06T09:09:18.359Z,9.20
2018-09-06T09:11:46.659Z,7.93
2018-09-06T09:14:14.976Z,8.50
2018-09-06T09:16:43.292Z,9.00
2018-09-06T09:19:11.604Z,8.83
2018-09-06T09:21:39.997Z,8.33
2018-09-06T09:24:08.252Z,8.00
2018-09-06T09:26:36.880Z,7.90
2018-09-06T09:29:05.209Z,8.40
2018-09-06T09:31:33.524Z,8.50
2018-09-06T09:34:01.820Z,7.90
2018-09-06T09:36:30.133Z,8.53
2018-09-06T09:38:58.424Z,8.30
2018-09-06T09:41:26.736Z,7.97
2018-09-06T09:43:55.132Z,8.20
2018-09-06T09:48:50.962Z,9.90
2018-09-06T09:51:19.271Z,9.50
2018-09-06T09:53:47.562Z,8.37
2018-09-06T09:56:15.888Z,8.83
2018-09-06T09:58:44.192Z,9.40
2018-09-06T10:01:12.503Z,8.87
2018-09-06T10:03:46.075Z,8.83
2018-09-06T10:06:21.585Z,10.80
2018-09-06T10:08:55.706Z,10.23
2018-09-06T10:11:24.096Z,10.07
2018-09-06T10:13:52.430Z,10.37
2018-09-06T10:16:20.831Z,9.70
2018-09-06T10:18:49.139Z,10.97
2018-09-06T10:21:17.704Z,10.60
2018-09-06T10:23:46.011Z,9.93
2018-09-06T10:26:14.420Z,12.30
2018-09-06T10:28:42.800Z,11.30
2018-09-06T10:31:11.112Z,11.90
2018-09-06T10:33:39.431Z,11.17
2018-09-06T10:36:07.745Z,11.00
2018-09-06T10:38:36.036Z,11.67
2018-09-06T10:41:04.344Z,12.30
2018-09-06T10:43:32.684Z,11.93
2018-09-06T10:46:01.016Z,11.73
2018-09-06T10:48:29.308Z,11.70
2018-09-06T10:50:57.632Z,12.07
2018-09-06T10:53:25.928Z,11.83
2018-09-06T10:55:54.884Z,13.10
2018-09-06T10:58:23.181Z,12.53
2018-09-06T11:00:55.740Z,12.40
2018-09-06T11:03:24.057Z,11.80
2018-09-06T11:05:52.382Z,12.60
2018-09-06T11:08:20.754Z,11.93
2018-09-06T11:10:49.061Z,11.23
2018-09-06T11:13:17.368Z,12.00
2018-09-06T11:15:45.685Z,11.87
2018-09-06T11:18:13.979Z,12.40
2018-09-06T11:20:42.428Z,11.90
2018-09-06T11:23:10.727Z,10.73
2018-09-06T11:25:39.052Z,10.43
2018-09-06T11:28:07.557Z,12.03
2018-09-06T11:30:35.871Z,11.87
2018-09-06T11:33:04.167Z,10.40
2018-09-06T11:35:32.724Z,11.20
2018-09-06T11:38:01.040Z,10.93
2018-09-06T11:40:29.419Z,10.67
2018-09-06T11:42:57.676Z,10.73
2018-09-06T11:45:26.022Z,10.40
2018-09-06T11:47:54.380Z,10.60
2018-09-06T11:50:22.711Z,10.27
2018-09-06T11:52:51.048Z,9.37
2018-09-06T11:55:19.365Z,10.90
2018-09-06T11:57:47.764Z,11.30
2018-09-06T12:00:16.084Z,9.83
2018-09-06T12:02:44.400Z,9.50
2018-09-06T12:05:12.692Z,9.77
2018-09-06T12:07:41.021Z,9.90
2018-09-06T12:10:09.332Z,10.10
2018-09-06T12:12:38.451Z,9.93
2018-09-06T12:15:06.748Z,10.67
2018-09-06T12:17:35.096Z,9.57
2018-09-06T12:20:03.412Z,10.93
2018-09-06T12:22:31.776Z,10.73
2018-09-06T12:25:00.168Z,10.50
2018-09-06T12:27:28.484Z,10.00
2018-09-06T12:29:56.784Z,10.20
2018-09-06T12:32:25.111Z,9.70
2018-09-06T12:34:53.420Z,10.53
2018-09-06T12:37:21.760Z,9.93
2018-09-06T12:39:50.100Z,9.57
2018-09-06T12:42:18.541Z,10.40
2018-09-06T12:44:46.858Z,9.50
2018-09-06T12:47:15.188Z,10.20
2018-09-06T12:49:43.546Z,10.00
2018-09-06T12:52:11.828Z,10.43
2018-09-06T12:54:40.132Z,10.50
2018-09-06T12:57:08.489Z,10.07
2018-09-06T12:59:36.792Z,10.80
2018-09-06T13:02:05.106Z,10.03
2018-09-06T13:04:33.396Z,10.90
2018-09-06T13:07:01.717Z,10.63
2018-09-06T13:09:30.037Z,10.73
2018-09-06T13:11:58.362Z,10.50
2018-09-06T13:14:26.945Z,10.10
2018-09-06T13:16:55.266Z,10.23
2018-09-06T13:19:23.581Z,10.60
2018-09-06T13:21:51.907Z,11.20
2018-09-06T13:24:20.208Z,10.80
2018-09-06T13:26:48.600Z,10.27
2018-09-06T13:29:16.904Z,10.80
2018-09-06T13:31:45.216Z,10.17
2018-09-06T13:34:13.509Z,9.80
2018-09-06T13:36:41.824Z,9.83
2018-09-06T13:39:10.758Z,9.80
2018-09-06T13:41:39.070Z,10.70
2018-09-06T13:44:07.441Z,10.10
2018-09-06T13:46:35.752Z,9.90
2018-09-06T13:49:04.052Z,10.40
2018-09-06T13:51:32.392Z,9.63
2018-09-06T13:54:00.708Z,9.30
2018-09-06T13:56:29.021Z,9.70
2018-09-06T13:58:57.576Z,9.70
2018-09-06T14:01:25.912Z,10.00
2018-09-06T14:03:54.231Z,10.37
2018-09-06T14:06:22.548Z,9.97
2018-09-06T14:08:50.860Z,10.13
2018-09-06T14:11:19.188Z,10.07
2018-09-06T14:13:47.476Z,9.47
2018-09-06T14:16:15.770Z,9.30
2018-09-06T14:18:44.092Z,10.20
2018-09-06T14:21:12.392Z,10.07
2018-09-06T14:23:40.704Z,10.10
2018-09-06T14:26:08.995Z,10.23
2018-09-06T14:28:37.304Z,9.90
2018-09-06T14:31:05.677Z,9.87
2018-09-06T14:33:33.981Z,9.97
2018-09-06T14:36:02.373Z,10.03
2018-09-06T14:38:30.724Z,11.07
2018-09-06T14:40:59.024Z,10.57
2018-09-06T14:43:27.436Z,9.53
2018-09-06T14:45:55.747Z,10.43
2018-09-06T14:48:24.060Z,10.57
2018-09-06T14:50:52.441Z,10.03
2018-09-06T14:53:20.708Z,10.83
2018-09-06T14:55:48.988Z,9.60
2018-09-06T14:58:17.325Z,10.50
2018-09-06T15:00:45.632Z,10.90
2018-09-06T15:03:13.953Z,10.90
2018-09-06T15:05:42.283Z,10.77
2018-09-06T15:08:10.655Z,11.17
2018-09-06T15:10:39.046Z,10.97
2018-09-06T15:13:07.373Z,10.90
2018-09-06T15:15:35.677Z,10.77
2018-09-06T15:18:03.988Z,10.67
2018-09-06T15:20:32.305Z,11.47
2018-09-06T15:23:00.672Z,10.40
2018-09-06T15:25:28.972Z,10.70
2018-09-06T15:27:57.328Z,10.67
2018-09-06T15:30:25.798Z,9.33
2018-09-06T15:32:54.213Z,10.47
2018-09-06T15:35:22.517Z,10.73
2018-09-06T15:37:50.828Z,10.90
2018-09-06T15:40:19.121Z,9.63
2018-09-06T15:42:47.432Z,10.23
2018-09-06T15:45:15.725Z,11.23
2018-09-06T15:47:44.045Z,9.83
2018-09-06T15:50:12.346Z,10.57
2018-09-06T15:52:40.688Z,10.10
2018-09-06T15:55:09.100Z,9.63
2018-09-06T15:57:37.411Z,10.50
2018-09-06T16:00:06.064Z,10.00
2018-09-06T16:02:34.476Z,10.10
2018-09-06T16:05:03.653Z,10.50
2018-09-06T16:07:32.020Z,11.03
2018-09-06T16:10:00.525Z,10.27
2018-09-06T16:12:28.851Z,9.90
2018-09-06T16:14:57.172Z,11.10
2018-09-06T16:17:25.640Z,11.07
2018-09-06T16:19:53.936Z,10.60
2018-09-06T16:22:22.315Z,9.97
2018-09-06T16:24:50.660Z,10.00
2018-09-06T16:27:18.993Z,11.60
2018-09-06T16:29:47.333Z,11.87
2018-09-06T16:32:15.624Z,11.10
2018-09-06T16:34:43.988Z,10.57
2018-09-06T16:37:12.383Z,10.20
2018-09-06T16:39:40.700Z,11.03
2018-09-06T16:42:09.171Z,10.63
2018-09-06T16:44:37.579Z,10.17
2018-09-06T16:47:05.945Z,10.60
2018-09-06T16:49:34.268Z,11.10
2018-09-06T16:52:02.564Z,11.20
2018-09-06T16:54:30.872Z,11.07
2018-09-06T16:57:00.615Z,11.27
2018-09-06T16:59:29.032Z,11.10
2018-09-06T17:01:57.337Z,10.40
2018-09-06T17:04:25.657Z,10.73
2018-09-06T17:06:57.199Z,10.20
2018-09-06T17:09:25.564Z,10.87
2018-09-06T17:11:53.915Z,11.20
2018-09-06T17:14:22.343Z,10.50
2018-09-06T17:16:50.633Z,9.90
2018-09-06T17:19:18.956Z,10.57
2018-09-06T17:21:47.267Z,10.60
2018-09-06T17:24:15.592Z,9.87
2018-09-06T17:26:43.909Z,10.43
2018-09-06T17:29:12.664Z,11.10
2018-09-06T17:31:41.045Z,10.80
2018-09-06T17:34:09.364Z,10.90
2018-09-06T17:36:37.665Z,10.40
2018-09-06T17:39:08.550Z,11.03
2018-09-06T17:41:36.697Z,11.57
2018-09-06T17:44:05.054Z,11.20
2018-09-06T17:46:33.367Z,10.60
2018-09-06T17:49:01.680Z,11.27
2018-09-06T17:51:29.975Z,11.80
2018-09-06T17:53:58.288Z,11.40
2018-09-06T17:56:26.599Z,10.97
2018-09-06T17:58:54.927Z,10.50
2018-09-06T18:01:38.576Z,12.00
2018-09-06T18:04:07.224Z,11.50
2018-09-06T18:06:35.547Z,11.80
2018-09-06T18:09:06.494Z,11.53
2018-09-06T18:11:34.792Z,10.80
2018-09-06T18:14:03.122Z,12.03
2018-09-06T18:16:31.416Z,11.50
2018-09-06T18:18:59.733Z,12.23
2018-09-06T18:21:28.043Z,11.07
2018-09-06T18:23:57.124Z,11.57
2018-09-06T18:26:25.651Z,12.17
2018-09-06T18:28:53.959Z,11.90
2018-09-06T18:31:22.296Z,13.57
2018-09-06T18:33:50.800Z,12.43
2018-09-06T18:36:19.108Z,11.63
2018-09-06T18:38:48.085Z,12.87
2018-09-06T18:41:16.427Z,12.53
2018-09-06T18:43:44.917Z,11.07
2018-09-06T18:46:13.416Z,11.53
2018-09-06T18:48:42.064Z,13.50
2018-09-06T18:51:11.493Z,11.30
2018-09-06T18:53:40.212Z,11.80
2018-09-06T18:56:08.526Z,11.70
2018-09-06T18:58:36.864Z,11.30
2018-09-06T19:01:05.180Z,12.17
2018-09-06T19:03:33.474Z,11.87
2018-09-06T19:06:01.796Z,12.90
2018-09-06T19:08:30.213Z,13.30
2018-09-06T19:10:58.551Z,13.13
2018-09-06T19:13:26.875Z,12.83
2018-09-06T19:15:55.232Z,12.90
2018-09-06T19:18:23.612Z,11.50
2018-09-06T19:20:52.017Z,11.30
2018-09-06T19:23:20.308Z,12.93
2018-09-06T19:25:48.692Z,11.90
2018-09-06T19:28:16.987Z,12.70
2018-09-06T19:30:45.304Z,13.07
2018-09-06T19:33:13.844Z,12.43
2018-09-06T19:35:42.160Z,13.33
2018-09-06T19:38:10.484Z,13.87
2018-09-06T19:40:38.851Z,13.00
2018-09-06T19:43:07.256Z,13.50
2018-09-06T19:45:35.584Z,12.00
2018-09-06T19:48:03.988Z,12.47
2018-09-06T19:50:33.182Z,12.87
2018-09-06T19:53:01.508Z,11.47
2018-09-06T19:55:29.824Z,13.20
2018-09-06T19:57:58.120Z,13.70
2018-09-06T20:00:26.445Z,12.57
2018-09-06T20:02:54.754Z,13.30
2018-09-06T20:05:23.077Z,11.90
2018-09-06T20:07:51.455Z,12.90
2018-09-06T20:10:19.761Z,13.20
2018-09-06T20:12:48.535Z,13.53
2018-09-06T20:15:16.941Z,14.87
2018-09-06T20:17:45.272Z,12.73
2018-09-06T20:20:13.693Z,13.77
2018-09-06T20:22:42.000Z,14.10
2018-09-06T20:25:10.355Z,13.57
2018-09-06T20:27:38.772Z,13.93
2018-09-06T20:30:07.092Z,13.47
2018-09-06T20:32:35.392Z,14.80
2018-09-06T20:35:03.820Z,12.50
2018-09-06T20:37:32.125Z,12.57
2018-09-06T20:40:00.452Z,14.27
2018-09-06T20:42:28.752Z,13.73
2018-09-06T20:44:57.075Z,13.40
2018-09-06T20:47:25.372Z,14.80
2018-09-06T20:49:53.732Z,15.40
2018-09-06T20:52:22.048Z,15.50
2018-09-06T20:54:50.369Z,15.23
2018-09-06T20:57:18.692Z,15.13
2018-09-06T20:59:47.016Z,13.73
2018-09-06T21:02:21.461Z,14.43
2018-09-06T21:04:50.248Z,15.27
2018-09-06T21:07:18.644Z,13.63
2018-09-06T21:09:46.985Z,15.87
2018-09-06T21:12:15.348Z,14.90
2018-09-06T21:14:43.664Z,14.83
2018-09-06T21:17:11.963Z,15.63
2018-09-06T21:19:40.305Z,13.90
2018-09-06T21:22:08.605Z,14.30
2018-09-06T21:24:36.921Z,13.90
2018-09-06T21:27:05.461Z,13.30
2018-09-06T21:29:33.802Z,13.70
2018-09-06T21:32:02.592Z,13.17
2018-09-06T21:34:30.892Z,13.00
2018-09-06T21:36:59.291Z,12.67
2018-09-06T21:39:27.612Z,12.57
2018-09-06T21:41:55.927Z,14.33
2018-09-06T21:44:24.220Z,12.70
2018-09-06T21:46:52.543Z,12.80
2018-09-06T21:49:20.840Z,12.87
2018-09-06T21:51:49.160Z,13.77
2018-09-06T21:54:17.460Z,12.80
2018-09-06T21:56:45.780Z,13.23
2018-09-06T21:59:14.077Z,13.50
2018-09-06T22:01:42.392Z,12.00
2018-09-06T22:04:10.688Z,11.03
2018-09-06T22:06:39.430Z,13.00
2018-09-06T22:09:10.468Z,12.33
2018-09-06T22:11:38.819Z,12.60
2018-09-06T22:14:07.187Z,11.60
2018-09-06T22:16:35.495Z,11.40
2018-09-06T22:19:03.792Z,11.90
2018-09-06T22:21:32.117Z,12.10
2018-09-06T22:24:00.407Z,11.67
2018-09-06T22:26:28.720Z,13.30
2018-09-06T22:28:57.017Z,12.60
2018-09-06T22:31:25.416Z,12.47
2018-09-06T22:33:53.724Z,10.73
2018-09-06T22:36:22.045Z,12.40
2018-09-06T22:38:50.410Z,12.37
2018-09-06T22:41:18.728Z,11.30
2018-09-06T22:43:47.028Z,11.80
2018-09-06T22:46:15.335Z,12.43
2018-09-06T22:48:43.649Z,12.30
2018-09-06T22:51:11.968Z,12.17
2018-09-06T22:53:40.271Z,13.10
2018-09-06T22:56:08.591Z,13.03
2018-09-06T22:58:36.889Z,13.30
2018-09-06T23:01:05.207Z,12.67
2018-09-06T23:03:37.144Z,12.77
2018-09-06T23:06:05.585Z,12.47
2018-09-06T23:08:33.925Z,11.93
2018-09-06T23:11:02.245Z,12.57
2018-09-06T23:13:30.658Z,13.30
2018-09-06T23:15:58.988Z,13.07
2018-09-06T23:18:27.284Z,12.63
2018-09-06T23:20:55.617Z,11.87
2018-09-06T23:23:23.913Z,13.43
2018-09-06T23:25:52.250Z,14.00
2018-09-06T23:28:20.632Z,12.40
2018-09-06T23:30:48.977Z,11.87
2018-09-06T23:33:17.285Z,12.67
2018-09-06T23:35:46.069Z,13.33
2018-09-06T23:38:16.464Z,12.50
2018-09-06T23:40:50.329Z,12.67
2018-09-06T23:43:19.046Z,12.13
2018-09-06T23:45:48.437Z,11.50
2018-09-06T23:48:16.739Z,12.63
2018-09-06T23:50:45.045Z,12.73
2018-09-06T23:53:13.364Z,12.77
2018-09-06T23:55:41.666Z,12.10
2018-09-06T23:58:09.996Z,12.03
